createdAt,value
2022-10-04T00:02:27.542Z,2.05
2022-10-04T00:18:43.944Z,2.10
2022-10-04T00:27:22.978Z,2.30
2022-10-04T00:35:51.099Z,2.25
2022-10-04T00:44:00.986Z,2.90
2022-10-04T00:52:14.739Z,3.67
2022-10-04T01:00:23.823Z,4.10
2022-10-04T01:08:31.847Z,4.28
2022-10-04T01:16:41.436Z,4.78
2022-10-04T01:24:49.707Z,5.38
2022-10-04T01:32:55.086Z,5.47
2022-10-04T01:41:06.237Z,6.47
2022-10-04T01:49:19.253Z,6.78
2022-10-04T01:57:34.878Z,6.03
2022-10-04T02:05:44.451Z,4.22
2022-10-04T02:13:55.639Z,4.47
2022-10-04T02:22:03.582Z,4.60
2022-10-04T02:30:14.675Z,3.95
2022-10-04T02:38:25.392Z,3.70
2022-10-04T02:46:37.763Z,3.65
2022-10-04T02:54:48.048Z,3.78
2022-10-04T03:03:19.468Z,2.80
2022-10-04T03:11:28.199Z,2.30
2022-10-04T03:19:37.621Z,2.15
2022-10-04T03:27:43.257Z,2.05
2022-10-04T03:35:55.117Z,2.38
2022-10-04T03:44:04.893Z,2.88
2022-10-04T03:52:22.816Z,2.53
2022-10-04T04:00:28.393Z,2.97
2022-10-04T04:08:39.335Z,3.55
2022-10-04T04:16:44.732Z,3.22
2022-10-04T04:24:53.296Z,3.47
2022-10-04T04:33:00.575Z,3.30
2022-10-04T04:41:14.546Z,3.97
2022-10-04T04:49:23.864Z,3.15
2022-10-04T04:57:33.525Z,4.13
2022-10-04T05:05:39.505Z,3.70
2022-10-04T05:13:52.791Z,4.00
2022-10-04T05:22:01.780Z,3.83
2022-10-04T05:30:19.440Z,3.80
2022-10-04T05:38:36.015Z,3.28
2022-10-04T05:46:44.201Z,3.15
2022-10-04T05:54:52.123Z,3.70
2022-10-04T06:03:39.003Z,2.72
2022-10-04T06:12:02.291Z,3.28
2022-10-04T06:20:37.760Z,3.20
2022-10-04T06:28:48.239Z,3.25
2022-10-04T06:37:24.521Z,3.17
2022-10-04T06:45:52.768Z,2.97
2022-10-04T06:54:11.044Z,3.53
2022-10-04T07:02:20.864Z,3.97
2022-10-04T07:10:36.005Z,4.53
2022-10-04T07:18:59.249Z,4.10
2022-10-04T07:27:14.791Z,3.78
2022-10-04T07:35:34.006Z,3.15
2022-10-04T07:43:51.182Z,3.63
2022-10-04T07:52:10.662Z,2.72
2022-10-04T08:00:22.028Z,2.72
2022-10-04T08:08:43.876Z,2.88
2022-10-04T08:17:06.354Z,3.00
2022-10-04T08:25:23.960Z,2.50
2022-10-04T08:33:50.061Z,3.22
2022-10-04T08:42:25.064Z,2.60
2022-10-04T08:51:01.353Z,2.13
2022-10-04T08:59:26.129Z,2.17
2022-10-04T09:08:04.374Z,2.28
2022-10-04T09:16:19.568Z,2.25
2022-10-04T09:24:53.824Z,2.50
2022-10-04T09:33:34.629Z,2.80
2022-10-04T09:41:53.975Z,2.60
2022-10-04T09:50:24.368Z,1.90
2022-10-04T09:59:10.189Z,2.25
2022-10-04T10:07:38.119Z,2.00
2022-10-04T10:16:01.178Z,2.50
2022-10-04T10:24:30.357Z,1.95
2022-10-04T10:32:58.088Z,1.77
2022-10-04T10:41:35.891Z,2.08
2022-10-04T10:50:05.949Z,1.95
2022-10-04T10:58:44.374Z,2.30
2022-10-04T11:07:26.677Z,1.83
2022-10-04T11:15:51.756Z,2.13
2022-10-04T11:24:33.186Z,1.90
2022-10-04T11:33:28.438Z,1.40
2022-10-04T11:41:53.451Z,2.10
2022-10-04T11:50:20.598Z,2.10
2022-10-04T11:58:38.730Z,1.65
2022-10-04T12:07:00.899Z,2.10
2022-10-04T12:15:39.135Z,1.63
2022-10-04T12:24:16.342Z,1.50
2022-10-04T12:32:33.972Z,1.90
2022-10-04T12:40:46.475Z,2.00
2022-10-04T12:49:08.942Z,1.80
2022-10-04T12:57:39.940Z,1.63
2022-10-04T13:06:03.163Z,2.17
2022-10-04T13:14:37.337Z,1.90
2022-10-04T13:22:56.866Z,1.40
2022-10-04T13:31:08.725Z,1.25
2022-10-04T13:39:33.492Z,1.25
2022-10-04T13:47:50.927Z,1.27
2022-10-04T13:56:18.886Z,1.48
2022-10-04T14:04:45.547Z,1.35
2022-10-04T14:13:26.246Z,1.58
2022-10-04T14:22:01.659Z,1.40
2022-10-04T14:30:20.375Z,1.80
2022-10-04T14:38:52.663Z,1.67
2022-10-04T14:47:13.878Z,1.55
2022-10-04T14:55:35.713Z,2.20
2022-10-04T15:04:02.738Z,2.17
2022-10-04T15:13:08.822Z,1.58
2022-10-04T15:21:12.480Z,1.45
2022-10-04T15:29:27.286Z,1.70
2022-10-04T15:37:47.105Z,2.65
2022-10-04T15:46:12.870Z,1.70
2022-10-04T15:54:59.791Z,1.50
2022-10-04T16:03:21.703Z,2.00
2022-10-04T16:11:42.479Z,2.80
2022-10-04T16:20:06.228Z,2.17
2022-10-04T16:28:26.239Z,2.65
2022-10-04T16:36:44.407Z,3.00
2022-10-04T16:44:56.791Z,3.50
2022-10-04T16:53:22.852Z,2.95
2022-10-04T17:02:15.854Z,4.57
2022-10-04T17:10:34.354Z,3.97
2022-10-04T17:18:55.427Z,6.85
2022-10-04T17:27:17.649Z,4.93
2022-10-04T17:36:11.288Z,3.80
2022-10-04T17:44:40.150Z,4.60
2022-10-04T17:53:04.530Z,9.00
2022-10-04T18:01:15.421Z,9.18
2022-10-04T18:09:30.332Z,8.52
2022-10-04T18:17:40.901Z,7.25
2022-10-04T18:25:51.406Z,5.22
2022-10-04T18:33:56.739Z,5.40
2022-10-04T18:42:19.265Z,5.90
2022-10-04T18:50:36.729Z,6.15
2022-10-04T18:59:16.902Z,5.95
2022-10-04T19:07:32.253Z,6.68
2022-10-04T19:16:15.464Z,6.32
2022-10-04T19:24:44.007Z,8.83
2022-10-04T19:33:02.717Z,8.55
2022-10-04T19:41:17.095Z,8.77
2022-10-04T19:49:34.381Z,9.55
2022-10-04T19:57:46.320Z,10.93
2022-10-04T20:05:55.613Z,9.95
2022-10-04T20:14:37.818Z,10.35
2022-10-04T20:23:00.900Z,9.95
2022-10-04T20:31:07.435Z,9.23
2022-10-04T20:40:01.099Z,9.05
2022-10-04T20:48:15.695Z,11.32
2022-10-04T20:56:26.866Z,11.43
2022-10-04T21:04:42.314Z,10.20
2022-10-04T21:12:51.774Z,10.02
2022-10-04T21:21:06.950Z,11.82
2022-10-04T21:29:15.020Z,11.43
2022-10-04T21:37:21.404Z,10.70
2022-10-04T21:45:29.361Z,12.23
2022-10-04T21:53:34.635Z,11.65
2022-10-04T22:01:42.598Z,10.20
2022-10-04T22:09:47.916Z,10.68
2022-10-04T22:17:55.821Z,7.93
2022-10-04T22:26:01.114Z,7.25
2022-10-04T22:34:16.186Z,7.47
2022-10-04T22:42:22.049Z,8.25
2022-10-04T22:50:35.810Z,7.05
2022-10-04T23:06:48.927Z,5.60
2022-10-04T23:14:54.313Z,5.40
2022-10-04T23:23:03.054Z,5.70
2022-10-04T23:31:14.679Z,8.07
2022-10-04T23:39:27.900Z,8.68
2022-10-04T23:47:37.957Z,8.10
2022-10-04T23:55:48.161Z,7.57
